createdAt,value
2019-05-02T00:01:28.070Z,89.40
2019-05-02T00:03:57.333Z,89.00
2019-05-02T00:06:25.989Z,89.80
2019-05-02T00:08:54.927Z,89.40
2019-05-02T00:11:23.474Z,89.40
2019-05-02T00:13:52.219Z,89.60
2019-05-02T00:16:20.714Z,89.50
2019-05-02T00:18:49.314Z,89.70
2019-05-02T00:21:17.703Z,89.60
2019-05-02T00:23:46.158Z,90.00
2019-05-02T00:26:14.542Z,90.00
2019-05-02T00:28:47.864Z,90.00
2019-05-02T00:31:13.170Z,90.40
2019-05-02T00:33:41.789Z,90.30
2019-05-02T00:36:10.215Z,90.20
2019-05-02T00:38:39.880Z,90.30
2019-05-02T00:41:08.446Z,90.30
2019-05-02T00:43:36.852Z,90.30
2019-05-02T00:46:05.723Z,90.70
2019-05-02T00:48:35.769Z,90.90
2019-05-02T00:51:04.235Z,91.40
2019-05-02T00:53:32.665Z,91.20
2019-05-02T00:56:05.068Z,90.80
2019-05-02T00:58:35.181Z,91.10
2019-05-02T01:01:03.001Z,91.10
2019-05-02T01:03:33.038Z,91.30
2019-05-02T01:06:01.451Z,91.70
2019-05-02T01:08:30.923Z,91.80
2019-05-02T01:10:59.989Z,91.90
2019-05-02T01:13:28.409Z,92.00
2019-05-02T01:15:56.830Z,92.00
2019-05-02T01:18:25.229Z,91.90
2019-05-02T01:20:53.707Z,91.70
2019-05-02T01:23:23.070Z,91.80
2019-05-02T01:25:52.798Z,91.90
2019-05-02T01:28:23.507Z,92.00
2019-05-02T01:30:53.565Z,91.80
2019-05-02T01:33:23.601Z,91.80
2019-05-02T01:35:53.658Z,91.80
2019-05-02T01:38:26.561Z,91.70
2019-05-02T01:40:54.792Z,91.70
2019-05-02T01:43:26.406Z,91.60
2019-05-02T01:45:55.256Z,91.60
2019-05-02T01:48:24.231Z,91.60
2019-05-02T01:50:52.678Z,91.50
2019-05-02T01:53:21.162Z,91.70
2019-05-02T01:55:51.975Z,91.80
2019-05-02T01:58:21.001Z,91.80
2019-05-02T02:00:49.960Z,91.70
2019-05-02T02:03:18.450Z,91.70
2019-05-02T02:05:47.038Z,91.70
2019-05-02T02:08:15.515Z,91.60
2019-05-02T02:10:44.086Z,91.70
2019-05-02T02:13:12.514Z,91.90
2019-05-02T02:15:41.011Z,91.90
2019-05-02T02:18:09.507Z,92.20
2019-05-02T02:20:45.213Z,91.90
2019-05-02T02:23:15.227Z,91.90
2019-05-02T02:25:45.359Z,92.30
2019-05-02T02:28:13.776Z,92.60
2019-05-02T02:30:42.215Z,92.50
2019-05-02T02:33:10.719Z,92.30
2019-05-02T02:35:49.157Z,92.20
2019-05-02T02:38:09.442Z,92.30
2019-05-02T02:40:38.131Z,92.20
2019-05-02T02:43:29.843Z,92.30
2019-05-02T02:45:41.393Z,92.60
2019-05-02T02:48:09.819Z,92.50
2019-05-02T02:50:42.957Z,92.70
2019-05-02T02:53:08.347Z,92.50
2019-05-02T02:55:36.790Z,92.50
2019-05-02T02:58:06.632Z,92.50
2019-05-02T03:00:41.584Z,92.30
2019-05-02T03:03:05.891Z,92.10
2019-05-02T03:05:34.318Z,92.40
2019-05-02T03:08:05.505Z,92.30
2019-05-02T03:10:32.851Z,92.30
2019-05-02T03:13:02.912Z,92.20
2019-05-02T03:15:33.023Z,92.30
2019-05-02T03:18:02.117Z,92.40
2019-05-02T03:20:40.089Z,92.30
2019-05-02T03:23:01.106Z,92.40
2019-05-02T03:25:48.631Z,92.50
2019-05-02T03:28:01.205Z,92.50
2019-05-02T03:30:35.455Z,92.40
2019-05-02T03:33:09.567Z,92.30
2019-05-02T03:35:41.913Z,92.40
2019-05-02T03:38:01.557Z,92.40
2019-05-02T03:40:32.325Z,92.50
2019-05-02T03:43:00.356Z,92.50
2019-05-02T03:45:32.096Z,92.60
2019-05-02T03:47:58.925Z,92.50
2019-05-02T03:50:32.693Z,92.50
2019-05-02T03:52:57.542Z,92.40
2019-05-02T03:55:31.447Z,92.60
2019-05-02T03:57:56.461Z,92.90
2019-05-02T04:00:24.915Z,92.90
2019-05-02T04:03:00.082Z,93.20
2019-05-02T04:05:23.443Z,93.10
2019-05-02T04:07:52.004Z,93.00
2019-05-02T04:10:23.532Z,93.00
2019-05-02T04:12:58.226Z,93.00
2019-05-02T04:15:28.812Z,93.00
2019-05-02T04:17:54.331Z,93.10
2019-05-02T04:20:22.895Z,92.90
2019-05-02T04:22:51.371Z,93.00
2019-05-02T04:25:19.874Z,92.80
2019-05-02T04:27:48.439Z,92.90
2019-05-02T04:30:16.876Z,92.80
2019-05-02T04:32:49.783Z,92.80
2019-05-02T04:35:15.470Z,92.90
2019-05-02T04:37:43.944Z,93.00
2019-05-02T04:40:12.712Z,93.20
2019-05-02T04:42:41.106Z,92.90
2019-05-02T04:45:21.743Z,92.80
2019-05-02T04:47:42.488Z,92.80
2019-05-02T04:50:17.867Z,92.80
2019-05-02T04:52:48.292Z,92.70
2019-05-02T04:55:21.387Z,92.60
2019-05-02T04:57:47.362Z,92.60
2019-05-02T05:00:13.810Z,92.50
2019-05-02T05:02:42.219Z,92.40
2019-05-02T05:05:10.788Z,92.40
2019-05-02T05:07:44.267Z,92.20
2019-05-02T05:10:13.649Z,92.10
2019-05-02T05:12:42.103Z,92.10
2019-05-02T05:15:15.237Z,92.00
2019-05-02T05:17:40.828Z,91.90
2019-05-02T05:20:13.751Z,91.90
2019-05-02T05:22:44.304Z,91.60
2019-05-02T05:25:12.348Z,91.20
2019-05-02T05:27:41.616Z,91.30
2019-05-02T05:30:15.478Z,91.00
2019-05-02T05:32:40.253Z,91.00
2019-05-02T05:35:12.780Z,90.90
2019-05-02T05:37:43.381Z,90.60
2019-05-02T05:40:09.029Z,90.40
2019-05-02T05:42:37.935Z,90.10
2019-05-02T05:45:09.719Z,88.50
2019-05-02T05:47:38.327Z,85.90
2019-05-02T05:50:08.286Z,83.20
2019-05-02T05:52:38.733Z,81.90
2019-05-02T05:55:07.884Z,79.50
2019-05-02T05:57:38.361Z,81.00
2019-05-02T06:00:11.437Z,80.90
2019-05-02T06:02:52.931Z,80.30
2019-05-02T06:05:08.223Z,79.80
2019-05-02T06:07:41.798Z,76.70
2019-05-02T06:10:07.914Z,75.40
2019-05-02T06:12:36.639Z,74.20
2019-05-02T06:15:06.428Z,71.40
2019-05-02T06:17:34.826Z,69.90
2019-05-02T06:20:04.715Z,68.70
2019-05-02T06:22:33.120Z,67.30
2019-05-02T06:25:08.965Z,67.60
2019-05-02T06:27:34.830Z,69.10
2019-05-02T06:30:05.485Z,69.00
2019-05-02T06:32:33.900Z,69.70
2019-05-02T06:35:02.330Z,70.20
2019-05-02T06:37:30.730Z,71.00
2019-05-02T06:40:03.242Z,71.60
2019-05-02T06:42:32.604Z,72.10
2019-05-02T06:45:01.000Z,72.90
2019-05-02T06:47:29.546Z,72.00
2019-05-02T06:50:01.140Z,72.30
2019-05-02T06:52:32.703Z,72.20
2019-05-02T06:54:59.170Z,71.80
2019-05-02T06:57:27.635Z,71.80
2019-05-02T06:59:56.538Z,71.30
2019-05-02T07:02:28.143Z,70.80
2019-05-02T07:04:56.029Z,69.00
2019-05-02T07:07:30.312Z,67.90
2019-05-02T07:09:54.627Z,69.00
2019-05-02T07:12:23.040Z,71.40
2019-05-02T07:14:51.473Z,72.80
2019-05-02T07:17:26.497Z,73.40
2019-05-02T07:19:53.698Z,74.10
2019-05-02T07:22:22.294Z,75.30
2019-05-02T07:24:50.743Z,75.40
2019-05-02T07:27:19.181Z,75.60
2019-05-02T07:29:47.594Z,76.40
2019-05-02T07:32:19.439Z,76.80
2019-05-02T07:34:48.247Z,77.30
2019-05-02T07:37:19.429Z,78.20
2019-05-02T07:39:53.433Z,78.20
2019-05-02T07:42:21.896Z,78.80
2019-05-02T07:44:50.308Z,79.40
2019-05-02T07:47:24.267Z,79.20
2019-05-02T07:49:52.692Z,79.20
2019-05-02T07:52:21.551Z,79.60
2019-05-02T07:54:50.057Z,79.70
2019-05-02T07:57:18.457Z,80.50
2019-05-02T07:59:49.681Z,80.80
2019-05-02T08:02:20.295Z,80.70
2019-05-02T08:04:47.699Z,80.80
2019-05-02T08:07:21.084Z,80.00
2019-05-02T08:09:47.868Z,79.80
2019-05-02T08:12:18.792Z,80.50
2019-05-02T08:14:50.188Z,81.10
2019-05-02T08:20:19.229Z,81.80
2019-05-02T08:22:49.016Z,83.30
2019-05-02T08:25:18.327Z,83.30
2019-05-02T08:27:48.375Z,83.20
2019-05-02T08:30:18.790Z,83.50
2019-05-02T08:32:47.203Z,83.90
2019-05-02T08:35:15.703Z,84.10
2019-05-02T08:37:44.115Z,84.20
2019-05-02T08:40:12.855Z,84.10
2019-05-02T08:42:41.304Z,83.90
2019-05-02T08:45:10.611Z,83.50
2019-05-02T08:47:39.039Z,83.70
2019-05-02T08:50:07.918Z,83.10
2019-05-02T08:52:36.754Z,83.60
2019-05-02T08:55:09.839Z,84.00
2019-05-02T08:57:37.659Z,83.30
2019-05-02T09:00:06.826Z,84.10
2019-05-02T09:02:41.700Z,84.50
2019-05-02T09:05:06.842Z,84.30
2019-05-02T09:07:36.988Z,83.60
2019-05-02T09:10:07.899Z,84.00
2019-05-02T09:12:36.761Z,83.90
2019-05-02T09:15:07.184Z,82.80
2019-05-02T09:17:38.753Z,82.40
2019-05-02T09:20:15.023Z,81.90
2019-05-02T09:22:37.045Z,80.60
2019-05-02T09:25:07.824Z,80.80
2019-05-02T09:27:36.295Z,80.90
2019-05-02T09:30:07.773Z,80.40
2019-05-02T09:32:37.220Z,80.50
2019-05-02T09:35:06.529Z,79.50
2019-05-02T09:37:35.077Z,79.40
2019-05-02T09:40:06.841Z,79.60
2019-05-02T09:42:34.756Z,80.00
2019-05-02T09:45:04.522Z,80.80
2019-05-02T09:47:46.835Z,81.10
2019-05-02T09:50:05.655Z,81.40
2019-05-02T09:52:39.613Z,81.50
2019-05-02T09:55:07.304Z,82.10
2019-05-02T09:57:35.871Z,81.80
2019-05-02T10:00:09.050Z,82.50
2019-05-02T10:02:37.523Z,82.10
2019-05-02T10:05:06.178Z,81.90
2019-05-02T10:07:34.690Z,83.10
2019-05-02T10:10:06.569Z,83.40
2019-05-02T10:12:35.134Z,83.40
2019-05-02T10:15:05.892Z,84.20
2019-05-02T10:17:37.532Z,84.10
2019-05-02T10:20:07.045Z,84.10
2019-05-02T10:22:39.366Z,84.50
2019-05-02T10:25:07.203Z,85.60
2019-05-02T10:27:38.532Z,85.80
2019-05-02T10:30:12.096Z,86.10
2019-05-02T10:32:37.982Z,86.10
2019-05-02T10:35:09.676Z,86.10
2019-05-02T10:37:39.585Z,86.60
2019-05-02T10:40:13.488Z,87.10
2019-05-02T10:42:39.571Z,87.20
2019-05-02T10:45:12.945Z,86.60
2019-05-02T10:47:39.067Z,86.30
2019-05-02T10:50:09.264Z,85.90
2019-05-02T10:52:37.706Z,86.30
2019-05-02T10:55:07.244Z,85.80
2019-05-02T10:57:35.682Z,85.70
2019-05-02T11:00:07.491Z,85.80
2019-05-02T11:02:37.586Z,85.60
2019-05-02T11:05:07.761Z,85.50
2019-05-02T11:07:36.166Z,85.90
2019-05-02T11:10:07.003Z,85.70
2019-05-02T11:12:46.104Z,85.10
2019-05-02T11:15:12.642Z,84.50
2019-05-02T11:17:42.758Z,84.10
2019-05-02T11:20:12.462Z,84.30
2019-05-02T11:22:42.652Z,83.80
2019-05-02T11:25:12.092Z,82.80
2019-05-02T11:27:41.847Z,81.60
2019-05-02T11:30:12.209Z,81.80
2019-05-02T11:32:41.718Z,81.80
2019-05-02T11:35:12.220Z,82.60
2019-05-02T11:37:42.244Z,83.30
2019-05-02T11:40:12.865Z,83.40
2019-05-02T11:42:41.695Z,83.10
2019-05-02T11:45:12.120Z,82.90
2019-05-02T11:47:42.294Z,81.90
2019-05-02T11:50:12.021Z,82.10
2019-05-02T11:52:42.288Z,82.30
2019-05-02T11:55:12.688Z,81.40
2019-05-02T11:57:42.594Z,81.50
2019-05-02T12:00:12.409Z,81.80
2019-05-02T12:02:42.702Z,81.70
2019-05-02T12:05:13.207Z,81.70
2019-05-02T12:07:41.830Z,80.40
2019-05-02T12:10:12.519Z,79.50
2019-05-02T12:12:42.848Z,79.10
2019-05-02T12:15:12.179Z,79.50
2019-05-02T12:17:41.998Z,80.40
2019-05-02T12:20:11.897Z,80.80
2019-05-02T12:22:41.980Z,80.00
2019-05-02T12:25:12.637Z,79.80
2019-05-02T12:27:42.480Z,80.10
2019-05-02T12:30:11.847Z,81.10
2019-05-02T12:32:42.224Z,80.50
2019-05-02T12:35:11.816Z,80.10
2019-05-02T12:37:42.258Z,78.50
2019-05-02T12:40:12.242Z,78.20
2019-05-02T12:42:41.826Z,78.10
2019-05-02T12:45:12.305Z,77.70
2019-05-02T12:47:42.621Z,77.20
2019-05-02T12:50:12.110Z,77.30
2019-05-02T12:52:42.739Z,76.60
2019-05-02T12:55:12.751Z,76.70
2019-05-02T12:57:42.905Z,77.60
2019-05-02T13:00:12.905Z,77.60
2019-05-02T13:02:43.082Z,77.20
2019-05-02T13:05:13.148Z,77.30
2019-05-02T13:07:42.767Z,76.40
2019-05-02T13:10:13.903Z,76.40
2019-05-02T13:12:43.974Z,76.40
2019-05-02T13:15:12.881Z,76.60
2019-05-02T13:17:43.881Z,76.00
2019-05-02T13:20:13.660Z,76.00
2019-05-02T13:22:43.764Z,76.60
2019-05-02T13:25:13.817Z,76.60
2019-05-02T13:27:47.126Z,76.80
2019-05-02T13:30:14.831Z,77.30
2019-05-02T13:32:47.989Z,77.70
2019-05-02T13:35:16.883Z,77.00
2019-05-02T13:37:46.643Z,76.90
2019-05-02T13:40:17.331Z,76.00
2019-05-02T13:42:45.842Z,75.50
2019-05-02T13:45:17.742Z,75.30
2019-05-02T13:47:46.201Z,75.40
2019-05-02T13:50:15.019Z,73.90
2019-05-02T13:52:45.240Z,73.50
2019-05-02T13:55:15.340Z,72.00
2019-05-02T13:57:46.961Z,72.60
2019-05-02T14:00:17.159Z,72.70
2019-05-02T14:02:46.234Z,73.80
2019-05-02T14:05:15.912Z,74.00
2019-05-02T14:07:48.365Z,74.50
2019-05-02T14:10:19.252Z,73.50
2019-05-02T14:12:49.292Z,73.30
2019-05-02T14:15:21.920Z,73.40
2019-05-02T14:17:49.920Z,73.80
2019-05-02T14:20:22.185Z,74.60
2019-05-02T14:22:50.083Z,74.60
2019-05-02T14:25:18.691Z,74.90
2019-05-02T14:27:51.463Z,74.00
2019-05-02T14:30:33.381Z,74.20
2019-05-02T14:32:52.224Z,74.20
2019-05-02T14:35:24.058Z,74.10
2019-05-02T14:37:53.855Z,72.90
2019-05-02T14:40:23.890Z,72.70
2019-05-02T14:42:52.953Z,73.60
2019-05-02T14:45:30.222Z,73.50
2019-05-02T14:47:57.550Z,73.60
2019-05-02T14:50:26.360Z,73.40
2019-05-02T14:52:52.062Z,73.00
2019-05-02T14:55:22.272Z,73.60
2019-05-02T14:57:52.504Z,74.10
2019-05-02T15:00:22.654Z,73.40
2019-05-02T15:02:51.908Z,73.30
2019-05-02T15:05:27.897Z,73.80
2019-05-02T15:07:51.852Z,73.70
2019-05-02T15:10:22.693Z,73.40
2019-05-02T15:12:51.694Z,73.00
2019-05-02T15:15:23.003Z,74.10
2019-05-02T15:17:52.941Z,72.90
2019-05-02T15:20:23.536Z,72.80
2019-05-02T15:22:52.339Z,74.00
2019-05-02T15:25:21.755Z,73.70
2019-05-02T15:27:58.214Z,72.90
2019-05-02T15:30:20.732Z,72.50
2019-05-02T15:32:52.138Z,73.30
2019-05-02T15:35:26.574Z,73.90
2019-05-02T15:37:56.654Z,73.80
2019-05-02T15:40:46.944Z,73.10
2019-05-02T15:42:56.645Z,73.00
2019-05-02T15:45:23.924Z,74.20
2019-05-02T15:47:52.730Z,74.60
2019-05-02T15:50:24.426Z,73.40
2019-05-02T15:52:57.320Z,73.70
2019-05-02T15:55:23.153Z,74.20
2019-05-02T15:57:53.646Z,74.10
2019-05-02T16:00:25.863Z,74.80
2019-05-02T16:02:56.378Z,74.70
2019-05-02T16:05:23.942Z,74.10
2019-05-02T16:08:04.782Z,74.40
2019-05-02T16:10:22.540Z,75.40
2019-05-02T16:12:52.669Z,75.30
2019-05-02T16:15:26.214Z,75.10
2019-05-02T16:17:52.249Z,75.50
2019-05-02T16:20:24.030Z,76.50
2019-05-02T16:22:52.507Z,75.90
2019-05-02T16:25:24.490Z,74.90
2019-05-02T16:27:52.747Z,74.80
2019-05-02T16:30:22.918Z,74.60
2019-05-02T16:32:52.966Z,74.70
2019-05-02T16:35:23.040Z,75.00
2019-05-02T16:37:55.689Z,74.70
2019-05-02T16:40:29.604Z,75.00
2019-05-02T16:42:53.602Z,75.80
2019-05-02T16:45:22.502Z,77.10
2019-05-02T16:47:58.758Z,77.90
2019-05-02T16:50:22.954Z,78.80
2019-05-02T16:52:53.083Z,79.60
2019-05-02T16:55:26.468Z,80.30
2019-05-02T16:57:56.747Z,80.70
2019-05-02T17:00:25.083Z,80.50
2019-05-02T17:02:53.478Z,80.50
2019-05-02T17:05:24.824Z,80.70
2019-05-02T17:07:54.863Z,80.40
2019-05-02T17:10:25.096Z,80.50
2019-05-02T17:12:57.718Z,80.40
2019-05-02T17:15:26.289Z,81.00
2019-05-02T17:17:56.353Z,81.60
2019-05-02T17:20:24.814Z,82.50
2019-05-02T17:23:01.800Z,83.10
2019-05-02T17:25:23.637Z,84.10
2019-05-02T17:27:55.433Z,84.10
2019-05-02T17:30:22.568Z,84.60
2019-05-02T17:32:51.026Z,84.10
2019-05-02T17:35:22.036Z,84.10
2019-05-02T17:37:50.468Z,83.90
2019-05-02T17:40:22.517Z,83.60
2019-05-02T17:42:52.050Z,83.20
2019-05-02T17:45:23.649Z,82.20
2019-05-02T17:47:51.250Z,81.70
2019-05-02T17:50:24.540Z,81.70
2019-05-02T17:52:56.174Z,81.30
2019-05-02T17:55:24.779Z,81.30
2019-05-02T17:57:53.201Z,81.70
2019-05-02T18:00:23.334Z,82.00
2019-05-02T18:02:52.161Z,82.20
2019-05-02T18:05:21.771Z,83.00
2019-05-02T18:07:50.267Z,85.50
2019-05-02T18:10:22.357Z,87.80
2019-05-02T18:12:58.137Z,88.70
2019-05-02T18:15:19.202Z,87.60
2019-05-02T18:17:47.614Z,87.60
2019-05-02T18:20:16.219Z,86.50
2019-05-02T18:22:48.716Z,87.10
2019-05-02T18:25:16.243Z,86.00
2019-05-02T18:27:45.425Z,86.20
2019-05-02T18:30:17.240Z,85.90
2019-05-02T18:32:45.773Z,85.20
2019-05-02T18:35:14.483Z,85.60
2019-05-02T18:37:46.838Z,85.20
2019-05-02T18:40:13.840Z,84.60
2019-05-02T18:42:42.499Z,84.60
2019-05-02T18:45:14.181Z,84.80
2019-05-02T18:47:42.579Z,84.10
2019-05-02T18:50:14.052Z,84.30
2019-05-02T18:52:43.214Z,84.30
2019-05-02T18:55:17.045Z,84.50
2019-05-02T18:57:42.796Z,84.40
2019-05-02T19:00:12.218Z,84.00
2019-05-02T19:02:42.410Z,84.10
2019-05-02T19:05:19.038Z,84.10
2019-05-02T19:07:42.733Z,83.70
2019-05-02T19:10:12.035Z,83.40
2019-05-02T19:12:42.020Z,83.40
2019-05-02T19:15:11.141Z,83.00
2019-05-02T19:17:40.532Z,83.00
2019-05-02T19:20:14.942Z,83.30
2019-05-02T19:22:51.828Z,83.10
2019-05-02T19:25:13.419Z,83.40
2019-05-02T19:27:43.476Z,83.70
2019-05-02T19:30:13.187Z,84.10
2019-05-02T19:32:41.764Z,84.10
2019-05-02T19:35:10.644Z,84.50
2019-05-02T19:37:44.581Z,84.80
2019-05-02T19:40:12.509Z,85.00
2019-05-02T19:42:42.464Z,85.40
2019-05-02T19:45:16.729Z,85.50
2019-05-02T19:47:42.168Z,85.50
2019-05-02T19:50:13.718Z,85.60
2019-05-02T19:52:42.930Z,85.40
2019-05-02T19:55:19.481Z,85.50
2019-05-02T19:57:44.382Z,85.70
2019-05-02T20:00:13.206Z,85.70
2019-05-02T20:02:42.328Z,86.00
2019-05-02T20:05:16.252Z,86.20
2019-05-02T20:07:42.667Z,85.70
2019-05-02T20:10:12.334Z,85.40
2019-05-02T20:12:48.273Z,85.30
2019-05-02T20:18:04.785Z,85.10
2019-05-02T20:20:40.521Z,84.70
2019-05-02T20:23:15.514Z,83.80
2019-05-02T20:25:39.108Z,83.10
2019-05-02T20:28:06.872Z,83.20
2019-05-02T20:30:35.425Z,82.90
2019-05-02T20:33:05.341Z,82.90
2019-05-02T20:35:33.933Z,82.90
2019-05-02T20:38:02.384Z,83.00
2019-05-02T20:40:32.350Z,82.80
2019-05-02T20:43:02.556Z,82.50
2019-05-02T20:45:32.286Z,82.90
2019-05-02T20:48:02.180Z,82.80
2019-05-02T20:50:31.843Z,83.00
2019-05-02T20:53:01.975Z,83.20
2019-05-02T20:55:32.267Z,83.20
2019-05-02T20:58:02.158Z,83.40
2019-05-02T21:00:32.309Z,83.50
2019-05-02T21:03:02.637Z,83.50
2019-05-02T21:05:33.037Z,83.40
2019-05-02T21:08:03.159Z,83.40
2019-05-02T21:10:33.311Z,83.50
2019-05-02T21:13:02.129Z,83.50
2019-05-02T21:15:32.368Z,83.60
2019-05-02T21:18:02.322Z,83.50
2019-05-02T21:20:32.515Z,83.50
2019-05-02T21:23:01.963Z,83.30
2019-05-02T21:25:32.547Z,82.80
2019-05-02T21:28:02.709Z,82.60
2019-05-02T21:30:32.236Z,82.30
2019-05-02T21:33:02.631Z,81.90
2019-05-02T21:35:31.911Z,81.80
2019-05-02T21:38:00.612Z,82.20
2019-05-02T21:40:32.727Z,82.10
2019-05-02T21:43:02.471Z,82.60
2019-05-02T21:45:31.654Z,83.10
2019-05-02T21:48:02.163Z,83.40
2019-05-02T21:50:32.370Z,83.70
2019-05-02T21:53:02.712Z,84.10
2019-05-02T21:55:32.766Z,84.50
2019-05-02T21:58:02.700Z,84.70
2019-05-02T22:00:33.216Z,85.00
2019-05-02T22:03:01.952Z,85.30
2019-05-02T22:05:31.674Z,85.20
2019-05-02T22:08:00.268Z,85.20
2019-05-02T22:10:28.713Z,85.20
2019-05-02T22:12:57.135Z,85.40
2019-05-02T22:15:25.599Z,85.40
2019-05-02T22:17:54.017Z,85.70
2019-05-02T22:20:22.963Z,85.50
2019-05-02T22:22:52.028Z,85.50
2019-05-02T22:25:22.181Z,85.30
2019-05-02T22:27:53.922Z,85.60
2019-05-02T22:30:21.949Z,85.80
2019-05-02T22:32:51.696Z,85.70
2019-05-02T22:35:21.702Z,85.90
2019-05-02T22:37:51.929Z,85.80
2019-05-02T22:40:21.791Z,85.80
2019-05-02T22:42:52.245Z,85.80
2019-05-02T22:45:21.807Z,85.80
2019-05-02T22:47:52.060Z,85.60
2019-05-02T22:50:22.030Z,85.30
2019-05-02T22:52:52.159Z,84.90
2019-05-02T22:55:22.465Z,84.70
2019-05-02T22:57:51.755Z,84.60
2019-05-02T23:00:21.645Z,84.40
2019-05-02T23:02:50.139Z,84.60
2019-05-02T23:05:18.566Z,84.70
2019-05-02T23:07:47.033Z,85.00
2019-05-02T23:10:15.947Z,85.00
2019-05-02T23:12:44.404Z,84.90
2019-05-02T23:15:13.210Z,85.10
2019-05-02T23:17:42.814Z,85.00
2019-05-02T23:20:12.781Z,84.70
2019-05-02T23:22:41.832Z,84.40
2019-05-02T23:25:14.293Z,84.00
2019-05-02T23:27:44.433Z,83.50
2019-05-02T23:30:14.840Z,83.30
2019-05-02T23:32:43.261Z,83.40
2019-05-02T23:35:12.697Z,83.40
2019-05-02T23:37:42.233Z,83.40
2019-05-02T23:40:12.479Z,83.30
2019-05-02T23:42:41.742Z,83.20
2019-05-02T23:45:12.103Z,83.60
2019-05-02T23:47:42.220Z,83.60
2019-05-02T23:50:12.203Z,83.70
2019-05-02T23:52:40.721Z,83.60
2019-05-02T23:55:09.714Z,83.00
2019-05-02T23:57:38.206Z,83.00
